TAR472 DTTA-LIPZ
Flight info
| Callsign | TAR472 |
|---|---|
| Flight time | 1h 22m |
| Altitude | 36000 |
| Route | TOBIB3C TOBIB UA725 OSMAR DCT TIVUK DCT ALEDI DCT APSUX DCT KUGIX DCT SUKOM Q125 NIMUM Z43 OTGIG |
| Aircraft | A20N/M-SDE2E3FGHIRWXY/LB1 |
Departure
| Time | 2026-05-04 02:27 |
|---|---|
| Airport | Tunis Carthage International Airport (DTTA) |
Arrival
| Time | 2026-05-04 03:50 |
|---|---|
| Airport | Venice Marco Polo Airport (LIPZ) |
| Time | Latitude | Longitude | Altitude | Speed | Heading |
|---|---|---|---|---|---|
| 2026-05-04 02:16 | 36.84281 | 10.21845 | 32 ft | 0 kts | 283° |
| 2026-05-04 02:20 | 36.84276 | 10.21871 | 33 ft | 4 kts | 287° |
| 2026-05-04 02:21 | 36.84266 | 10.21902 | 33 ft | 4 kts | 300° |
| 2026-05-04 02:21 | 36.84250 | 10.21926 | 33 ft | 4 kts | 340° |
| 2026-05-04 02:21 | 36.84238 | 10.21929 | 33 ft | 1 kts | 12° |
| 2026-05-04 02:23 | 36.84253 | 10.21933 | 32 ft | 7 kts | 11° |
| 2026-05-04 02:24 | 36.84403 | 10.21975 | 33 ft | 18 kts | 17° |
| 2026-05-04 02:24 | 36.84465 | 10.22035 | 33 ft | 17 kts | 49° |
| 2026-05-04 02:24 | 36.84497 | 10.22173 | 33 ft | 17 kts | 101° |
| 2026-05-04 02:24 | 36.84550 | 10.22271 | 33 ft | 15 kts | 15° |
| 2026-05-04 02:25 | 36.84645 | 10.22297 | 33 ft | 14 kts | 12° |
| 2026-05-04 02:25 | 36.84737 | 10.22321 | 33 ft | 13 kts | 12° |
| 2026-05-04 02:25 | 36.84824 | 10.22346 | 32 ft | 13 kts | 12° |
| 2026-05-04 02:25 | 36.84906 | 10.22369 | 34 ft | 12 kts | 14° |
| 2026-05-04 02:26 | 36.84989 | 10.22396 | 34 ft | 12 kts | 14° |
| 2026-05-04 02:26 | 36.85075 | 10.22419 | 35 ft | 14 kts | 12° |
| 2026-05-04 02:26 | 36.85160 | 10.22446 | 38 ft | 10 kts | 32° |
| 2026-05-04 02:26 | 36.85124 | 10.22668 | 37 ft | 56 kts | 111° |
| 2026-05-04 02:27 | 36.84888 | 10.23378 | 31 ft | 120 kts | 113° |
| 2026-05-04 02:27 | 36.84543 | 10.24440 | 398 ft | 128 kts | 116° |
| 2026-05-04 02:27 | 36.84343 | 10.25492 | 975 ft | 137 kts | 86° |
| 2026-05-04 02:27 | 36.85017 | 10.26445 | 1194 ft | 174 kts | 17° |
| 2026-05-04 02:28 | 36.86293 | 10.26376 | 1484 ft | 198 kts | 335° |
| 2026-05-04 02:28 | 36.87417 | 10.25328 | 1834 ft | 209 kts | 300° |
| 2026-05-04 02:28 | 36.87988 | 10.23589 | 2144 ft | 228 kts | 276° |
| 2026-05-04 02:28 | 36.88351 | 10.21597 | 2577 ft | 250 kts | 284° |
| 2026-05-04 02:29 | 36.89067 | 10.19532 | 3145 ft | 266 kts | 300° |
| 2026-05-04 02:29 | 36.90440 | 10.17979 | 3869 ft | 272 kts | 335° |
| 2026-05-04 02:29 | 36.92262 | 10.17369 | 4768 ft | 272 kts | 349° |
| 2026-05-04 02:29 | 36.94128 | 10.17001 | 5609 ft | 272 kts | 349° |
| 2026-05-04 02:30 | 36.95998 | 10.16634 | 6529 ft | 271 kts | 348° |
| 2026-05-04 02:30 | 36.97858 | 10.16237 | 7375 ft | 271 kts | 347° |
| 2026-05-04 02:30 | 36.99726 | 10.15814 | 8217 ft | 274 kts | 347° |
| 2026-05-04 02:30 | 37.01604 | 10.15373 | 9075 ft | 276 kts | 347° |
| 2026-05-04 02:31 | 37.03502 | 10.14919 | 9968 ft | 279 kts | 347° |
| 2026-05-04 02:31 | 37.05444 | 10.14449 | 10572 ft | 291 kts | 346° |
| 2026-05-04 02:31 | 37.07502 | 10.13944 | 10908 ft | 312 kts | 346° |
| 2026-05-04 02:31 | 37.09672 | 10.13412 | 11236 ft | 332 kts | 346° |
| 2026-05-04 02:32 | 37.12000 | 10.12842 | 11692 ft | 346 kts | 346° |
| 2026-05-04 02:32 | 37.14388 | 10.12260 | 12390 ft | 352 kts | 346° |
| 2026-05-04 02:32 | 37.16806 | 10.11670 | 13187 ft | 355 kts | 346° |
| 2026-05-04 02:32 | 37.19243 | 10.11075 | 13987 ft | 358 kts | 346° |
| 2026-05-04 02:33 | 37.21698 | 10.10474 | 14637 ft | 362 kts | 346° |
| 2026-05-04 02:33 | 37.24189 | 10.09863 | 15260 ft | 367 kts | 346° |
| 2026-05-04 02:33 | 37.26714 | 10.09242 | 15908 ft | 371 kts | 346° |
| 2026-05-04 02:33 | 37.29261 | 10.08616 | 16557 ft | 375 kts | 345° |
| 2026-05-04 02:34 | 37.31836 | 10.07983 | 17242 ft | 378 kts | 345° |
| 2026-05-04 02:34 | 37.34430 | 10.07345 | 17872 ft | 382 kts | 345° |
| 2026-05-04 02:34 | 37.37060 | 10.06697 | 18484 ft | 386 kts | 345° |
| 2026-05-04 02:34 | 37.39709 | 10.06039 | 19026 ft | 390 kts | 345° |
| 2026-05-04 02:35 | 37.42367 | 10.05298 | 19576 ft | 392 kts | 343° |
| 2026-05-04 02:35 | 37.45028 | 10.04482 | 20134 ft | 395 kts | 342° |
| 2026-05-04 02:35 | 37.47703 | 10.03624 | 20689 ft | 398 kts | 342° |
| 2026-05-04 02:35 | 37.50390 | 10.02750 | 21214 ft | 401 kts | 342° |
| 2026-05-04 02:36 | 37.53065 | 10.01882 | 21753 ft | 404 kts | 342° |
| 2026-05-04 02:36 | 37.55797 | 10.01000 | 22267 ft | 407 kts | 342° |
| 2026-05-04 02:36 | 37.58545 | 10.00119 | 22771 ft | 410 kts | 342° |
| 2026-05-04 02:36 | 37.61335 | 9.99229 | 23271 ft | 413 kts | 342° |
| 2026-05-04 02:37 | 37.64129 | 9.98341 | 23751 ft | 416 kts | 342° |
| 2026-05-04 02:37 | 37.66947 | 9.97446 | 24177 ft | 418 kts | 342° |
| 2026-05-04 02:37 | 37.69775 | 9.96547 | 24637 ft | 420 kts | 342° |
| 2026-05-04 02:37 | 37.72621 | 9.95642 | 25081 ft | 422 kts | 342° |
| 2026-05-04 02:38 | 37.75477 | 9.94733 | 25516 ft | 424 kts | 342° |
| 2026-05-04 02:38 | 37.78345 | 9.93820 | 25934 ft | 426 kts | 342° |
| 2026-05-04 02:38 | 37.81238 | 9.92898 | 26304 ft | 429 kts | 342° |
| 2026-05-04 02:38 | 37.84140 | 9.91974 | 26700 ft | 431 kts | 342° |
| 2026-05-04 02:39 | 37.87014 | 9.91058 | 27094 ft | 433 kts | 342° |
| 2026-05-04 02:39 | 37.89938 | 9.90125 | 27471 ft | 435 kts | 342° |
| 2026-05-04 02:39 | 37.92881 | 9.89186 | 27841 ft | 436 kts | 342° |
| 2026-05-04 02:39 | 37.95835 | 9.88242 | 28199 ft | 438 kts | 342° |
| 2026-05-04 02:40 | 37.98794 | 9.87295 | 28634 ft | 438 kts | 341° |
| 2026-05-04 02:40 | 38.01744 | 9.86353 | 29172 ft | 435 kts | 341° |
| 2026-05-04 02:40 | 38.04676 | 9.85416 | 29720 ft | 433 kts | 341° |
| 2026-05-04 02:40 | 38.07585 | 9.84484 | 30228 ft | 431 kts | 341° |
| 2026-05-04 02:41 | 38.10487 | 9.83554 | 30661 ft | 429 kts | 341° |
| 2026-05-04 02:41 | 38.13376 | 9.82627 | 31047 ft | 427 kts | 340° |
| 2026-05-04 02:41 | 38.16258 | 9.81700 | 31424 ft | 426 kts | 340° |
| 2026-05-04 02:41 | 38.19130 | 9.80776 | 31856 ft | 423 kts | 340° |
| 2026-05-04 02:42 | 38.21987 | 9.79923 | 32284 ft | 423 kts | 344° |
| 2026-05-04 02:42 | 38.24891 | 9.79464 | 32693 ft | 427 kts | 351° |
| 2026-05-04 02:42 | 38.27914 | 9.79525 | 33080 ft | 433 kts | 359° |
| 2026-05-04 02:42 | 38.30860 | 9.80021 | 33445 ft | 434 kts | 2° |
| 2026-05-04 02:43 | 38.33849 | 9.80665 | 33815 ft | 433 kts | 3° |
| 2026-05-04 02:43 | 38.36817 | 9.81381 | 34159 ft | 433 kts | 4° |
| 2026-05-04 02:43 | 38.39769 | 9.82127 | 34433 ft | 432 kts | 4° |
| 2026-05-04 02:43 | 38.42718 | 9.82879 | 34677 ft | 431 kts | 4° |
| 2026-05-04 02:44 | 38.45659 | 9.83623 | 34943 ft | 430 kts | 4° |
| 2026-05-04 02:44 | 38.48583 | 9.84358 | 35296 ft | 427 kts | 4° |
| 2026-05-04 02:44 | 38.51501 | 9.85083 | 35529 ft | 427 kts | 4° |
| 2026-05-04 02:44 | 38.54415 | 9.85800 | 35730 ft | 427 kts | 4° |
| 2026-05-04 02:45 | 38.57331 | 9.86515 | 35945 ft | 427 kts | 4° |
| 2026-05-04 02:45 | 38.60253 | 9.87230 | 36074 ft | 428 kts | 4° |
| 2026-05-04 02:45 | 38.66113 | 9.88668 | 36088 ft | 428 kts | 4° |
| 2026-05-04 02:46 | 38.71916 | 9.90098 | 36098 ft | 427 kts | 4° |
| 2026-05-04 02:46 | 38.77768 | 9.91541 | 36092 ft | 428 kts | 4° |
| 2026-05-04 02:47 | 38.83621 | 9.92970 | 36092 ft | 426 kts | 1° |
| 2026-05-04 02:47 | 38.89479 | 9.93686 | 36097 ft | 422 kts | 357° |
| 2026-05-04 02:48 | 38.95305 | 9.94179 | 36105 ft | 422 kts | 356° |
| 2026-05-04 02:48 | 39.01179 | 9.94625 | 36102 ft | 424 kts | 356° |
| 2026-05-04 02:49 | 39.07077 | 9.95079 | 36107 ft | 424 kts | 356° |
| 2026-05-04 02:49 | 39.12969 | 9.95543 | 36107 ft | 424 kts | 356° |
| 2026-05-04 02:50 | 39.18827 | 9.96009 | 36116 ft | 425 kts | 356° |
| 2026-05-04 02:50 | 39.24734 | 9.96479 | 36119 ft | 425 kts | 356° |
| 2026-05-04 02:51 | 39.30653 | 9.96952 | 36116 ft | 425 kts | 356° |
| 2026-05-04 02:51 | 39.36560 | 9.97424 | 36116 ft | 425 kts | 356° |
| 2026-05-04 02:52 | 39.42487 | 9.97898 | 36123 ft | 428 kts | 357° |
| 2026-05-04 02:52 | 39.48439 | 9.98373 | 36118 ft | 429 kts | 357° |
| 2026-05-04 02:53 | 39.54367 | 9.98850 | 36118 ft | 429 kts | 357° |
| 2026-05-04 02:53 | 39.60334 | 9.99467 | 36131 ft | 434 kts | 3° |
| 2026-05-04 02:54 | 39.66290 | 10.01270 | 36129 ft | 441 kts | 8° |
| 2026-05-04 02:54 | 39.72223 | 10.03403 | 36132 ft | 443 kts | 9° |
| 2026-05-04 02:55 | 39.81116 | 10.06709 | 36123 ft | 443 kts | 9° |
| 2026-05-04 02:56 | 39.87021 | 10.08887 | 36125 ft | 445 kts | 9° |
| 2026-05-04 02:56 | 39.93004 | 10.11086 | 36124 ft | 446 kts | 9° |
| 2026-05-04 02:57 | 39.98985 | 10.13288 | 36124 ft | 446 kts | 9° |
| 2026-05-04 02:57 | 40.04958 | 10.15490 | 36127 ft | 446 kts | 9° |
| 2026-05-04 02:58 | 40.10954 | 10.17704 | 36126 ft | 448 kts | 9° |
| 2026-05-04 02:58 | 40.16957 | 10.19927 | 36123 ft | 448 kts | 9° |
| 2026-05-04 02:59 | 40.22923 | 10.22137 | 36124 ft | 448 kts | 10° |
| 2026-05-04 02:59 | 40.28918 | 10.24366 | 36123 ft | 447 kts | 10° |
| 2026-05-04 03:00 | 40.34907 | 10.26596 | 36123 ft | 447 kts | 10° |
| 2026-05-04 03:00 | 40.40901 | 10.28833 | 36132 ft | 447 kts | 10° |
| 2026-05-04 03:01 | 40.46891 | 10.31070 | 36128 ft | 448 kts | 11° |
| 2026-05-04 03:01 | 40.52876 | 10.33307 | 36131 ft | 450 kts | 11° |
| 2026-05-04 03:02 | 40.58915 | 10.35572 | 36127 ft | 451 kts | 11° |
| 2026-05-04 03:02 | 40.64924 | 10.37830 | 36125 ft | 451 kts | 11° |
| 2026-05-04 03:03 | 40.70978 | 10.40108 | 36127 ft | 454 kts | 11° |
| 2026-05-04 03:03 | 40.77068 | 10.42403 | 36126 ft | 456 kts | 11° |
| 2026-05-04 03:04 | 40.83175 | 10.44711 | 36129 ft | 456 kts | 11° |
| 2026-05-04 03:04 | 40.89233 | 10.47005 | 36131 ft | 456 kts | 12° |
| 2026-05-04 03:05 | 40.95349 | 10.49324 | 36131 ft | 457 kts | 12° |
| 2026-05-04 03:05 | 41.01479 | 10.51654 | 36129 ft | 458 kts | 12° |
| 2026-05-04 03:06 | 41.07604 | 10.53986 | 36127 ft | 457 kts | 12° |
| 2026-05-04 03:06 | 41.13690 | 10.56308 | 36126 ft | 458 kts | 12° |
| 2026-05-04 03:07 | 41.19842 | 10.58616 | 36132 ft | 458 kts | 11° |
| 2026-05-04 03:07 | 41.26024 | 10.60634 | 36135 ft | 457 kts | 9° |
| 2026-05-04 03:08 | 41.32219 | 10.62556 | 36138 ft | 457 kts | 9° |
| 2026-05-04 03:08 | 41.38430 | 10.64503 | 36138 ft | 458 kts | 9° |
| 2026-05-04 03:09 | 41.44592 | 10.66464 | 36138 ft | 458 kts | 9° |
| 2026-05-04 03:09 | 41.50795 | 10.68451 | 36142 ft | 458 kts | 9° |
| 2026-05-04 03:10 | 41.57003 | 10.70444 | 36138 ft | 459 kts | 9° |
| 2026-05-04 03:10 | 41.63210 | 10.72441 | 36143 ft | 459 kts | 9° |
| 2026-05-04 03:11 | 41.68370 | 10.74103 | 36140 ft | 459 kts | 9° |
| 2026-05-04 03:11 | 41.74584 | 10.76108 | 36143 ft | 460 kts | 10° |
| 2026-05-04 03:12 | 41.81833 | 10.78452 | 36143 ft | 460 kts | 10° |
| 2026-05-04 03:12 | 41.87011 | 10.80130 | 36144 ft | 460 kts | 10° |
| 2026-05-04 03:13 | 41.93247 | 10.82155 | 36143 ft | 461 kts | 10° |
| 2026-05-04 03:13 | 41.99476 | 10.84181 | 36143 ft | 461 kts | 10° |
| 2026-05-04 03:14 | 42.05716 | 10.86215 | 36145 ft | 461 kts | 10° |
| 2026-05-04 03:14 | 42.11948 | 10.88250 | 36154 ft | 461 kts | 10° |
| 2026-05-04 03:15 | 42.18189 | 10.90293 | 36151 ft | 461 kts | 10° |
| 2026-05-04 03:15 | 42.24387 | 10.92325 | 36151 ft | 461 kts | 10° |
| 2026-05-04 03:16 | 42.30632 | 10.94377 | 36153 ft | 461 kts | 10° |
| 2026-05-04 03:16 | 42.36874 | 10.96433 | 36154 ft | 461 kts | 10° |
| 2026-05-04 03:17 | 42.43114 | 10.98491 | 36152 ft | 461 kts | 10° |
| 2026-05-04 03:17 | 42.49344 | 11.00551 | 36153 ft | 461 kts | 10° |
| 2026-05-04 03:18 | 42.55581 | 11.02617 | 36141 ft | 461 kts | 10° |
| 2026-05-04 03:18 | 42.61786 | 11.04677 | 36136 ft | 461 kts | 10° |
| 2026-05-04 03:19 | 42.68032 | 11.06754 | 36128 ft | 462 kts | 10° |
| 2026-05-04 03:19 | 42.74272 | 11.08834 | 36130 ft | 462 kts | 10° |
| 2026-05-04 03:20 | 42.80515 | 11.10920 | 36131 ft | 462 kts | 10° |
| 2026-05-04 03:20 | 42.86757 | 11.13009 | 36132 ft | 462 kts | 10° |
| 2026-05-04 03:21 | 42.92989 | 11.15099 | 36168 ft | 461 kts | 10° |
| 2026-05-04 03:21 | 42.99183 | 11.17182 | 36167 ft | 461 kts | 10° |
| 2026-05-04 03:22 | 43.05402 | 11.19277 | 36168 ft | 461 kts | 10° |
| 2026-05-04 03:22 | 43.11633 | 11.21380 | 36159 ft | 461 kts | 10° |
| 2026-05-04 03:23 | 43.17858 | 11.23485 | 36155 ft | 461 kts | 11° |
| 2026-05-04 03:23 | 43.24090 | 11.25598 | 36171 ft | 461 kts | 11° |
| 2026-05-04 03:24 | 43.30274 | 11.27698 | 36171 ft | 460 kts | 11° |
| 2026-05-04 03:24 | 43.36484 | 11.29813 | 36168 ft | 459 kts | 11° |
| 2026-05-04 03:25 | 43.42680 | 11.31927 | 36172 ft | 458 kts | 11° |
| 2026-05-04 03:25 | 43.48866 | 11.34041 | 36163 ft | 457 kts | 11° |
| 2026-05-04 03:26 | 43.55027 | 11.36146 | 36173 ft | 455 kts | 10° |
| 2026-05-04 03:26 | 43.61170 | 11.38077 | 36167 ft | 455 kts | 9° |
| 2026-05-04 03:27 | 43.67349 | 11.39922 | 36163 ft | 455 kts | 8° |
| 2026-05-04 03:27 | 43.73543 | 11.41778 | 36152 ft | 455 kts | 9° |
| 2026-05-04 03:28 | 43.79731 | 11.43653 | 35958 ft | 456 kts | 9° |
| 2026-05-04 03:28 | 43.82830 | 11.44597 | 35704 ft | 456 kts | 9° |
| 2026-05-04 03:28 | 43.85938 | 11.45545 | 35458 ft | 457 kts | 9° |
| 2026-05-04 03:28 | 43.89055 | 11.46498 | 35206 ft | 458 kts | 9° |
| 2026-05-04 03:29 | 43.92170 | 11.47451 | 34962 ft | 459 kts | 9° |
| 2026-05-04 03:29 | 43.95291 | 11.48407 | 34720 ft | 459 kts | 9° |
| 2026-05-04 03:29 | 43.98416 | 11.49365 | 34482 ft | 460 kts | 9° |
| 2026-05-04 03:29 | 44.01544 | 11.50325 | 34245 ft | 461 kts | 9° |
| 2026-05-04 03:30 | 44.04678 | 11.51287 | 34005 ft | 461 kts | 9° |
| 2026-05-04 03:30 | 44.07816 | 11.52252 | 33735 ft | 462 kts | 9° |
| 2026-05-04 03:30 | 44.10955 | 11.53218 | 33483 ft | 462 kts | 9° |
| 2026-05-04 03:30 | 44.14064 | 11.54176 | 33209 ft | 463 kts | 9° |
| 2026-05-04 03:31 | 44.17212 | 11.55147 | 32943 ft | 463 kts | 9° |
| 2026-05-04 03:31 | 44.20367 | 11.56122 | 32688 ft | 464 kts | 9° |
| 2026-05-04 03:31 | 44.23521 | 11.57097 | 32429 ft | 464 kts | 9° |
| 2026-05-04 03:31 | 44.26679 | 11.58074 | 32162 ft | 465 kts | 9° |
| 2026-05-04 03:32 | 44.29835 | 11.59052 | 31891 ft | 465 kts | 9° |
| 2026-05-04 03:32 | 44.33006 | 11.60036 | 31637 ft | 465 kts | 9° |
| 2026-05-04 03:32 | 44.36169 | 11.61018 | 31366 ft | 466 kts | 9° |
| 2026-05-04 03:32 | 44.39295 | 11.61990 | 31048 ft | 465 kts | 9° |
| 2026-05-04 03:33 | 44.42498 | 11.62986 | 30231 ft | 468 kts | 9° |
| 2026-05-04 03:33 | 44.45658 | 11.63969 | 29182 ft | 474 kts | 9° |
| 2026-05-04 03:33 | 44.48893 | 11.64976 | 28206 ft | 477 kts | 10° |
| 2026-05-04 03:33 | 44.52150 | 11.65998 | 27211 ft | 478 kts | 11° |
| 2026-05-04 03:34 | 44.55283 | 11.67539 | 26180 ft | 478 kts | 24° |
| 2026-05-04 03:34 | 44.58173 | 11.69808 | 25455 ft | 471 kts | 28° |
| 2026-05-04 03:34 | 44.60956 | 11.72227 | 24767 ft | 470 kts | 31° |
| 2026-05-04 03:34 | 44.63682 | 11.74747 | 24028 ft | 470 kts | 32° |
| 2026-05-04 03:35 | 44.66388 | 11.77324 | 23229 ft | 469 kts | 33° |
| 2026-05-04 03:35 | 44.69049 | 11.79888 | 22457 ft | 458 kts | 33° |
| 2026-05-04 03:35 | 44.71634 | 11.82381 | 21745 ft | 444 kts | 33° |
| 2026-05-04 03:35 | 44.74153 | 11.84802 | 21033 ft | 433 kts | 33° |
| 2026-05-04 03:36 | 44.76636 | 11.87179 | 20339 ft | 430 kts | 33° |
| 2026-05-04 03:36 | 44.79104 | 11.89532 | 19622 ft | 429 kts | 33° |
| 2026-05-04 03:36 | 44.81556 | 11.91866 | 18900 ft | 429 kts | 34° |
| 2026-05-04 03:36 | 44.84027 | 11.94217 | 18133 ft | 428 kts | 34° |
| 2026-05-04 03:37 | 44.86495 | 11.96568 | 17342 ft | 427 kts | 34° |
| 2026-05-04 03:37 | 44.88949 | 11.98909 | 16612 ft | 424 kts | 34° |
| 2026-05-04 03:37 | 44.91361 | 12.01292 | 15854 ft | 422 kts | 38° |
| 2026-05-04 03:37 | 44.93640 | 12.03906 | 15130 ft | 420 kts | 40° |
| 2026-05-04 03:38 | 44.95863 | 12.06573 | 14433 ft | 418 kts | 41° |
| 2026-05-04 03:38 | 44.98039 | 12.09268 | 13699 ft | 416 kts | 41° |
| 2026-05-04 03:38 | 45.00391 | 12.11617 | 12943 ft | 413 kts | 29° |
| 2026-05-04 03:38 | 45.02934 | 12.13457 | 12233 ft | 409 kts | 25° |
| 2026-05-04 03:39 | 45.05468 | 12.15121 | 11519 ft | 403 kts | 24° |
| 2026-05-04 03:39 | 45.07986 | 12.16723 | 11014 ft | 385 kts | 23° |
| 2026-05-04 03:39 | 45.10352 | 12.18212 | 10894 ft | 358 kts | 23° |
| 2026-05-04 03:39 | 45.12554 | 12.19592 | 10798 ft | 334 kts | 22° |
| 2026-05-04 03:40 | 45.14614 | 12.20880 | 10699 ft | 314 kts | 22° |
| 2026-05-04 03:40 | 45.16569 | 12.22101 | 10602 ft | 300 kts | 22° |
| 2026-05-04 03:40 | 45.18462 | 12.23280 | 10313 ft | 299 kts | 22° |
| 2026-05-04 03:40 | 45.20381 | 12.24475 | 9828 ft | 302 kts | 22° |
| 2026-05-04 03:41 | 45.22312 | 12.25678 | 9377 ft | 302 kts | 22° |
| 2026-05-04 03:41 | 45.24233 | 12.26877 | 8968 ft | 300 kts | 22° |
| 2026-05-04 03:41 | 45.26137 | 12.28066 | 8555 ft | 298 kts | 22° |
| 2026-05-04 03:41 | 45.28031 | 12.29250 | 8141 ft | 296 kts | 23° |
| 2026-05-04 03:42 | 45.29911 | 12.30426 | 7756 ft | 294 kts | 23° |
| 2026-05-04 03:42 | 45.31151 | 12.31202 | 7493 ft | 293 kts | 22° |
| 2026-05-04 03:42 | 45.33615 | 12.32746 | 6995 ft | 290 kts | 22° |
| 2026-05-04 03:42 | 45.35459 | 12.33902 | 6612 ft | 289 kts | 23° |
| 2026-05-04 03:43 | 45.37293 | 12.35053 | 6221 ft | 287 kts | 23° |
| 2026-05-04 03:43 | 45.39118 | 12.36198 | 5803 ft | 286 kts | 23° |
| 2026-05-04 03:43 | 45.40932 | 12.37337 | 5404 ft | 284 kts | 23° |
| 2026-05-04 03:43 | 45.42735 | 12.38471 | 5000 ft | 283 kts | 23° |
| 2026-05-04 03:44 | 45.44530 | 12.39600 | 4609 ft | 281 kts | 23° |
| 2026-05-04 03:44 | 45.46315 | 12.40724 | 4212 ft | 279 kts | 23° |
| 2026-05-04 03:44 | 45.48083 | 12.41838 | 3818 ft | 278 kts | 23° |
| 2026-05-04 03:44 | 45.49847 | 12.42950 | 3440 ft | 276 kts | 23° |
| 2026-05-04 03:45 | 45.51556 | 12.44030 | 3295 ft | 260 kts | 23° |
| 2026-05-04 03:45 | 45.53146 | 12.45034 | 3199 ft | 246 kts | 23° |
| 2026-05-04 03:45 | 45.54669 | 12.45997 | 3121 ft | 232 kts | 23° |
| 2026-05-04 03:45 | 45.56097 | 12.46901 | 2969 ft | 217 kts | 23° |
| 2026-05-04 03:46 | 45.57460 | 12.47632 | 2695 ft | 201 kts | 8° |
| 2026-05-04 03:46 | 45.58791 | 12.47408 | 2624 ft | 193 kts | 332° |
| 2026-05-04 03:46 | 45.59568 | 12.46087 | 2509 ft | 166 kts | 278° |
| 2026-05-04 03:46 | 45.59260 | 12.44676 | 2308 ft | 147 kts | 226° |
| 2026-05-04 03:47 | 45.58432 | 12.43798 | 1826 ft | 152 kts | 210° |
| 2026-05-04 03:47 | 45.57508 | 12.43073 | 1459 ft | 149 kts | 207° |
| 2026-05-04 03:47 | 45.56608 | 12.42381 | 1146 ft | 143 kts | 208° |
| 2026-05-04 03:47 | 45.55775 | 12.41652 | 930 ft | 139 kts | 213° |
| 2026-05-04 03:48 | 45.54983 | 12.40859 | 785 ft | 140 kts | 216° |
| 2026-05-04 03:48 | 45.54217 | 12.39985 | 710 ft | 142 kts | 222° |
| 2026-05-04 03:48 | 45.53486 | 12.39034 | 582 ft | 142 kts | 221° |
| 2026-05-04 03:48 | 45.52762 | 12.38114 | 392 ft | 141 kts | 223° |
| 2026-05-04 03:49 | 45.52043 | 12.37172 | 195 ft | 139 kts | 224° |
| 2026-05-04 03:49 | 45.51332 | 12.36230 | 43 ft | 139 kts | 223° |
| 2026-05-04 03:49 | 45.50661 | 12.35379 | 18 ft | 110 kts | 222° |
| 2026-05-04 03:49 | 45.50223 | 12.34820 | 17 ft | 65 kts | 222° |
| 2026-05-04 03:50 | 45.50047 | 12.34553 | 17 ft | 18 kts | 266° |
| 2026-05-04 03:50 | 45.50050 | 12.34375 | 18 ft | 17 kts | 268° |
| 2026-05-04 03:50 | 45.50048 | 12.34201 | 18 ft | 18 kts | 269° |
| 2026-05-04 03:50 | 45.50074 | 12.34093 | 18 ft | 10 kts | 4° |
| 2026-05-04 03:51 | 45.50129 | 12.34130 | 19 ft | 8 kts | 6° |
| 2026-05-04 03:51 | 45.50169 | 12.34086 | 19 ft | 7 kts | 312° |
| 2026-05-04 03:51 | 45.50183 | 12.34063 | 19 ft | 0 kts | 312° |